createdAt,value
2023-04-03T00:02:00.202Z,4.82
2023-04-03T00:12:05.265Z,4.53
2023-04-03T00:17:09.223Z,4.18
2023-04-03T00:22:11.782Z,4.70
2023-04-03T00:27:14.529Z,4.50
2023-04-03T00:32:19.225Z,5.03
2023-04-03T00:37:22.500Z,4.22
2023-04-03T00:42:25.887Z,4.10
2023-04-03T00:47:31.183Z,4.18
2023-04-03T00:52:34.354Z,5.10
2023-04-03T00:57:37.141Z,4.68
2023-04-03T01:02:42.225Z,4.18
2023-04-03T01:07:45.513Z,4.85
2023-04-03T01:12:48.781Z,4.83
2023-04-03T01:17:54.382Z,4.20
2023-04-03T01:23:01.468Z,4.40
2023-04-03T01:28:04.646Z,4.72
2023-04-03T01:33:08.564Z,3.92
2023-04-03T01:38:11.974Z,4.38
2023-04-03T01:43:14.821Z,4.35
2023-04-03T01:48:22.286Z,4.23
2023-04-03T01:53:26.067Z,4.30
2023-04-03T01:58:29.755Z,4.10
2023-04-03T02:03:34.497Z,3.97
2023-04-03T02:08:37.008Z,4.40
2023-04-03T02:13:39.550Z,4.22
2023-04-03T02:18:43.397Z,3.90
2023-04-03T02:23:46.672Z,4.18
2023-04-03T02:28:49.335Z,4.00
2023-04-03T02:33:53.418Z,3.60
2023-04-03T02:38:56.078Z,3.70
2023-04-03T02:43:58.683Z,3.50
2023-04-03T02:49:03.021Z,3.92
2023-04-03T02:54:05.659Z,3.70
2023-04-03T02:59:09.077Z,3.23
2023-04-03T03:04:13.209Z,3.63
2023-04-03T03:09:16.159Z,3.58
2023-04-03T03:14:19.068Z,3.17
2023-04-03T03:19:22.929Z,3.30
2023-04-03T03:24:26.397Z,3.33
2023-04-03T03:29:28.991Z,3.30
2023-04-03T03:34:42.775Z,2.30
2023-04-03T03:39:45.265Z,2.72
2023-04-03T03:44:48.596Z,2.47
2023-04-03T03:49:53.127Z,3.00
2023-04-03T03:54:56.729Z,3.03
2023-04-03T03:59:59.270Z,2.72
2023-04-03T04:05:03.091Z,2.72
2023-04-03T04:10:06.606Z,2.60
2023-04-03T04:15:10.069Z,2.80
2023-04-03T04:20:14.762Z,2.78
2023-04-03T04:25:18.263Z,2.22
2023-04-03T04:30:21.045Z,2.65
2023-04-03T04:35:25.898Z,3.30
2023-04-03T04:40:28.830Z,2.97
2023-04-03T04:45:31.700Z,2.97
2023-04-03T04:50:36.443Z,2.63
2023-04-03T05:00:42.840Z,3.25
2023-04-03T05:05:48.043Z,2.60
2023-04-03T05:10:50.428Z,3.85
2023-04-03T05:15:54.101Z,2.88
2023-04-03T05:20:58.689Z,2.70
2023-04-03T05:26:01.327Z,3.10
2023-04-03T05:31:04.043Z,3.08
2023-04-03T05:36:08.532Z,3.40
2023-04-03T05:41:11.685Z,2.67
2023-04-03T05:46:16.402Z,2.77
2023-04-03T05:56:23.289Z,3.13
2023-04-03T06:01:26.489Z,2.90
2023-04-03T06:06:44.193Z,2.83
2023-04-03T06:11:48.973Z,2.75
2023-04-03T06:16:51.597Z,2.92
2023-04-03T06:21:54.673Z,3.05
2023-04-03T06:26:59.076Z,2.78
2023-04-03T06:32:02.293Z,2.67
2023-04-03T06:37:17.556Z,3.03
2023-04-03T06:42:31.394Z,3.05
2023-04-03T06:47:33.979Z,3.10
2023-04-03T06:52:36.887Z,3.13
2023-04-03T06:57:41.077Z,3.33
2023-04-03T07:02:44.147Z,2.85
2023-04-03T07:07:47.113Z,2.85
2023-04-03T07:12:50.981Z,3.53
2023-04-03T07:17:54.395Z,3.42
2023-04-03T07:22:56.871Z,2.88
2023-04-03T07:28:01.532Z,2.60
2023-04-03T07:33:04.932Z,2.83
2023-04-03T07:38:10.784Z,2.88
2023-04-03T07:43:15.816Z,2.80
2023-04-03T07:48:19.023Z,5.50
2023-04-03T07:53:23.563Z,2.55
2023-04-03T07:58:27.726Z,3.53
2023-04-03T08:08:34.789Z,2.47
2023-04-03T08:13:39.472Z,2.78
2023-04-03T08:18:42.099Z,3.38
2023-04-03T08:23:45.231Z,2.72
2023-04-03T08:28:50.080Z,3.75
2023-04-03T08:33:52.600Z,3.58
2023-04-03T08:38:56.753Z,3.63
2023-04-03T08:44:04.103Z,4.47
2023-04-03T08:49:18.240Z,2.72
2023-04-03T08:54:25.803Z,3.85
2023-04-03T08:59:31.887Z,3.65
2023-04-03T09:04:35.992Z,3.63
2023-04-03T09:09:42.042Z,4.80
2023-04-03T09:14:49.872Z,3.20
2023-04-03T09:19:57.117Z,3.50
2023-04-03T09:25:01.933Z,3.50
2023-04-03T09:30:07.927Z,3.88
2023-04-03T09:35:23.365Z,3.05
2023-04-03T09:40:36.466Z,3.45
2023-04-03T09:45:40.884Z,3.85
2023-04-03T09:50:56.468Z,3.22
2023-04-03T09:56:00.515Z,3.22
2023-04-03T10:01:05.084Z,2.45
2023-04-03T10:06:23.277Z,3.55
2023-04-03T10:11:26.521Z,3.72
2023-04-03T10:16:34.774Z,3.75
2023-04-03T10:21:40.782Z,3.60
2023-04-03T10:26:47.538Z,4.32
2023-04-03T10:31:55.217Z,3.88
2023-04-03T10:37:02.230Z,3.50
2023-04-03T10:42:16.776Z,2.95
2023-04-03T10:47:23.327Z,3.15
2023-04-03T10:52:31.903Z,2.95
2023-04-03T10:57:35.015Z,1.23
2023-04-03T11:02:41.515Z,2.80
2023-04-03T11:07:48.300Z,3.33
2023-04-03T11:12:53.195Z,2.78
2023-04-03T11:18:00.442Z,3.35
2023-04-03T11:23:05.215Z,1.85
2023-04-03T11:28:08.606Z,2.42
2023-04-03T11:33:31.815Z,2.80
2023-04-03T11:38:41.770Z,2.10
2023-04-03T11:43:45.559Z,4.53
2023-04-03T11:48:52.127Z,2.10
2023-04-03T11:54:19.419Z,1.92
2023-04-03T11:59:28.530Z,2.17
2023-04-03T12:04:31.990Z,1.77
2023-04-03T12:14:39.301Z,1.40
2023-04-03T12:19:44.612Z,1.88
2023-04-03T12:24:49.558Z,2.00
2023-04-03T12:29:58.177Z,3.63
2023-04-03T12:35:07.445Z,2.08
2023-04-03T12:40:12.703Z,2.00
2023-04-03T12:45:22.083Z,1.67
2023-04-03T12:55:32.975Z,1.30
2023-04-03T13:05:40.464Z,1.60
2023-04-03T13:10:51.483Z,1.90
2023-04-03T13:15:56.155Z,1.80
2023-04-03T13:21:02.730Z,1.60
2023-04-03T13:26:06.364Z,1.70
2023-04-03T13:31:11.655Z,1.58
2023-04-03T13:41:30.862Z,2.00
2023-04-03T13:46:34.110Z,1.80
2023-04-03T13:51:40.750Z,1.58
2023-04-03T13:56:45.238Z,4.68
2023-04-03T14:01:50.709Z,1.60
2023-04-03T14:06:55.042Z,2.00
2023-04-03T14:12:01.396Z,1.75
2023-04-03T14:17:05.547Z,1.55
2023-04-03T14:22:14.931Z,1.70
2023-04-03T14:27:21.865Z,1.40
2023-04-03T14:32:26.131Z,1.70
2023-04-03T14:37:30.660Z,3.42
2023-04-03T14:42:36.544Z,2.20
2023-04-03T14:47:41.892Z,1.50
2023-04-03T14:52:46.333Z,1.27
2023-04-03T14:57:51.281Z,1.58
2023-04-03T15:02:54.571Z,1.65
2023-04-03T15:07:58.046Z,5.30
2023-04-03T15:13:04.034Z,1.40
2023-04-03T15:18:06.931Z,1.38
2023-04-03T15:23:09.530Z,1.40
2023-04-03T15:28:19.672Z,1.42
2023-04-03T15:33:26.266Z,1.40
2023-04-03T15:38:30.279Z,1.27
2023-04-03T15:43:36.119Z,1.40
2023-04-03T15:48:40.021Z,1.25
2023-04-03T15:53:43.222Z,1.30
2023-04-03T16:03:50.750Z,1.23
2023-04-03T16:08:57.979Z,1.50
2023-04-03T16:14:00.710Z,1.33
2023-04-03T16:19:05.975Z,1.67
2023-04-03T16:24:08.838Z,1.38
2023-04-03T16:29:11.478Z,1.10
2023-04-03T16:34:24.543Z,1.58
2023-04-03T16:39:27.299Z,1.40
2023-04-03T16:44:30.004Z,1.17
2023-04-03T16:49:35.386Z,1.48
2023-04-03T16:54:38.225Z,1.60
2023-04-03T16:59:41.167Z,1.58
2023-04-03T17:04:55.243Z,1.30
2023-04-03T17:15:11.484Z,1.15
2023-04-03T17:20:15.780Z,1.30
2023-04-03T17:25:18.400Z,1.25
2023-04-03T17:30:20.920Z,1.38
2023-04-03T17:35:34.822Z,0.90
2023-04-03T17:40:47.401Z,1.48
2023-04-03T17:46:03.539Z,0.73
2023-04-03T17:51:08.229Z,1.40
2023-04-03T17:56:11.630Z,1.50
2023-04-03T18:01:15.406Z,2.30
2023-04-03T18:06:20.641Z,2.50
2023-04-03T18:11:29.306Z,1.90
2023-04-03T18:16:32.596Z,1.95
2023-04-03T18:21:36.813Z,1.70
2023-04-03T18:26:39.709Z,1.45
2023-04-03T18:31:47.191Z,1.58
2023-04-03T18:36:52.420Z,2.15
2023-04-03T18:41:56.324Z,1.65
2023-04-03T18:46:59.938Z,1.50
2023-04-03T18:52:05.754Z,1.45
2023-04-03T18:57:08.283Z,1.50
2023-04-03T19:02:13.303Z,1.60
2023-04-03T19:07:18.023Z,1.52
2023-04-03T19:12:21.685Z,1.70
2023-04-03T19:17:24.767Z,1.40
2023-04-03T19:22:29.073Z,1.63
2023-04-03T19:27:32.154Z,0.93
2023-04-03T19:32:35.677Z,0.98
2023-04-03T19:37:40.739Z,1.13
2023-04-03T19:42:44.466Z,0.90
2023-04-03T19:47:47.654Z,0.68
2023-04-03T19:52:52.550Z,1.80
2023-04-03T20:02:58.365Z,1.77
2023-04-03T20:08:02.671Z,1.83
2023-04-03T20:18:12.513Z,1.27
2023-04-03T20:23:17.505Z,1.70
2023-04-03T20:33:26.208Z,1.73
2023-04-03T20:38:30.409Z,2.30
2023-04-03T20:43:34.230Z,2.30
2023-04-03T20:48:36.812Z,1.60
2023-04-03T20:53:41.372Z,2.03
2023-04-03T20:58:46.094Z,2.20
2023-04-03T21:03:50.674Z,1.40
2023-04-03T21:09:12.998Z,2.23
2023-04-03T21:14:36.292Z,1.80
2023-04-03T21:19:45.943Z,1.70
2023-04-03T21:24:49.152Z,1.27
2023-04-03T21:29:52.304Z,1.87
2023-04-03T21:34:56.522Z,2.23
2023-04-03T21:45:02.042Z,1.83
2023-04-03T21:50:06.933Z,1.97
2023-04-03T21:55:10.022Z,1.80
2023-04-03T22:00:14.966Z,1.40
2023-04-03T22:05:19.810Z,1.33
2023-04-03T22:10:22.865Z,1.45
2023-04-03T22:15:26.338Z,1.30
2023-04-03T22:20:31.394Z,1.90
2023-04-03T22:25:35.439Z,1.80
2023-04-03T22:30:41.677Z,2.13
2023-04-03T22:35:48.267Z,1.53
2023-04-03T22:40:57.272Z,2.40
2023-04-03T22:46:01.141Z,1.87
2023-04-03T22:51:08.597Z,2.00
2023-04-03T22:56:12.455Z,2.07
2023-04-03T23:01:16.197Z,1.23
2023-04-03T23:06:20.061Z,1.70
2023-04-03T23:11:25.649Z,1.20
2023-04-03T23:16:28.724Z,2.00
2023-04-03T23:21:33.458Z,1.17
2023-04-03T23:26:36.308Z,1.17
2023-04-03T23:31:39.149Z,1.37
2023-04-03T23:36:43.239Z,1.70
2023-04-03T23:41:47.735Z,1.47
2023-04-03T23:46:52.525Z,1.77
2023-04-03T23:57:01.904Z,1.30
